Time;durP1;ratioP1;P1;durP2;ratioP2;P2;SDS_P1;SDS_P2;PMS_P1;PMS_P2;Temp;Humidity;BMP_temperature;BMP_pressure;BME280_temperature;BME280_humidity;BME280_pressure;Samples;Min_cycle;Max_cycle;Signal;HPM_P1;HPM_P2
2022/07/13 00:00:41;;;;;;;8.27;3.95;;;18.20;99.90;;;;;;7338731;32;20519;-62
2022/07/13 00:04:43;;;;;;;8.45;4.03;;;18.20;99.90;;;;;;7362085;32;20163;-62
2022/07/13 00:08:45;;;;;;;9.20;4.18;;;18.20;99.90;;;;;;7361543;32;20198;-62
2022/07/13 00:12:46;;;;;;;10.13;3.90;;;18.20;99.90;;;;;;7359785;32;20654;-62
2022/07/13 00:16:48;;;;;;;9.20;3.78;;;18.20;99.90;;;;;;7361893;32;20167;-62
2022/07/13 00:20:50;;;;;;;7.95;4.15;;;18.10;99.90;;;;;;7360625;32;20781;-63
2022/07/13 00:24:52;;;;;;;8.15;4.25;;;18.10;99.90;;;;;;7361713;32;20171;-62
2022/07/13 00:28:54;;;;;;;6.45;3.78;;;18.10;99.90;;;;;;7360973;32;20115;-62
2022/07/13 00:32:55;;;;;;;9.43;4.28;;;18.10;99.90;;;;;;7361014;32;20179;-62
2022/07/13 00:36:58;;;;;;;10.80;4.35;;;18.10;99.90;;;;;;7359957;32;20163;-62
2022/07/13 00:41:00;;;;;;;6.12;4.10;;;18.10;99.90;;;;;;7360146;32;20179;-63
2022/07/13 00:45:02;;;;;;;7.18;4.12;;;18.10;99.90;;;;;;7360934;32;20195;-62
2022/07/13 00:49:04;;;;;;;8.23;4.25;;;18.10;99.90;;;;;;7359801;32;20186;-62
2022/07/13 00:53:06;;;;;;;7.75;4.35;;;18.10;99.90;;;;;;7361157;32;20134;-62
2022/07/13 00:57:11;;;;;;;4.82;3.87;;;18.00;99.90;;;;;;7351344;32;20183;-62
2022/07/13 01:01:13;;;;;;;5.30;3.90;;;18.00;99.90;;;;;;7353030;32;20123;-62
2022/07/13 01:05:15;;;;;;;4.32;3.92;;;18.10;99.90;;;;;;7360441;32;20218;-62
2022/07/13 01:09:18;;;;;;;6.15;3.60;;;18.20;99.90;;;;;;7359657;32;20188;-62
2022/07/13 01:13:22;;;;;;;4.75;3.33;;;18.20;99.90;;;;;;7360672;32;20203;-62
2022/07/13 01:17:25;;;;;;;4.55;3.10;;;18.30;99.90;;;;;;7360584;32;20111;-62
2022/07/13 01:21:27;;;;;;;7.28;3.42;;;18.40;99.90;;;;;;7359212;32;20156;-62
2022/07/13 01:25:29;;;;;;;5.65;4.03;;;18.50;99.90;;;;;;7359646;32;20123;-62
2022/07/13 01:29:31;;;;;;;5.10;4.00;;;18.50;99.90;;;;;;7359221;32;20168;-62
2022/07/13 01:33:33;;;;;;;10.13;4.30;;;18.50;99.90;;;;;;7359672;32;20108;-62
2022/07/13 01:37:35;;;;;;;8.55;4.10;;;18.40;99.90;;;;;;7358909;32;20273;-62
2022/07/13 01:41:36;;;;;;;7.32;3.80;;;18.40;99.90;;;;;;7358839;32;20111;-62
2022/07/13 01:45:38;;;;;;;8.57;4.03;;;18.30;99.90;;;;;;7359361;32;20474;-62
2022/07/13 01:49:40;;;;;;;6.70;4.53;;;18.30;99.90;;;;;;7358015;32;20159;-62
2022/07/13 01:53:42;;;;;;;10.57;4.12;;;18.30;99.90;;;;;;7359077;32;20130;-62
2022/07/13 01:57:43;;;;;;;3.95;3.40;;;18.30;99.90;;;;;;7344786;32;20167;-62
2022/07/13 02:01:45;;;;;;;6.30;3.50;;;18.30;99.90;;;;;;7357482;32;20197;-63
2022/07/13 02:05:47;;;;;;;6.87;3.67;;;18.40;99.90;;;;;;7359848;32;20191;-62
2022/07/13 02:09:50;;;;;;;3.70;3.25;;;18.40;99.90;;;;;;7357913;32;20720;-63
2022/07/13 02:13:51;;;;;;;3.83;3.05;;;18.40;99.90;;;;;;7358598;32;20174;-62
2022/07/13 02:17:53;;;;;;;5.03;3.50;;;18.40;99.90;;;;;;7358512;32;20842;-62
2022/07/13 02:21:55;;;;;;;7.10;3.58;;;18.50;99.90;;;;;;7358744;32;20206;-62
2022/07/13 02:25:57;;;;;;;5.70;3.25;;;18.50;99.90;;;;;;7358719;32;20175;-62
2022/07/13 02:29:58;;;;;;;4.62;3.42;;;18.50;99.90;;;;;;7357453;32;20099;-62
2022/07/13 02:34:00;;;;;;;7.20;3.25;;;18.50;99.90;;;;;;7359354;32;20107;-62
2022/07/13 02:38:02;;;;;;;5.70;3.30;;;18.50;99.90;;;;;;7357982;32;20133;-62
2022/07/13 02:42:05;;;;;;;4.22;3.10;;;18.60;99.90;;;;;;7358246;32;20115;-62
2022/07/13 02:46:06;;;;;;;6.78;3.90;;;18.60;99.90;;;;;;7333995;32;20112;-62
2022/07/13 02:50:08;;;;;;;5.60;3.20;;;18.50;99.90;;;;;;7342542;32;20115;-62
2022/07/13 02:54:10;;;;;;;5.35;3.30;;;18.60;99.90;;;;;;7358456;32;20131;-62
2022/07/13 02:58:12;;;;;;;3.58;2.85;;;18.60;99.90;;;;;;7340834;32;20726;-62
2022/07/13 03:02:14;;;;;;;4.07;3.03;;;18.60;99.90;;;;;;7355603;32;20180;-62
2022/07/13 03:06:16;;;;;;;4.62;2.30;;;18.70;99.90;;;;;;7358462;32;20601;-62
2022/07/13 03:10:18;;;;;;;2.75;2.10;;;18.70;99.90;;;;;;7357204;32;20099;-62
2022/07/13 03:14:20;;;;;;;2.72;2.28;;;18.70;99.90;;;;;;7357655;32;20115;-62
2022/07/13 03:18:21;;;;;;;2.50;1.83;;;18.80;99.90;;;;;;7357327;32;20151;-62
2022/07/13 03:22:24;;;;;;;2.75;1.80;;;18.90;99.90;;;;;;7357974;32;20151;-62
2022/07/13 03:26:25;;;;;;;2.12;1.50;;;18.90;99.90;;;;;;7358111;32;20267;-62
2022/07/13 03:30:28;;;;;;;1.85;1.70;;;18.90;99.90;;;;;;7356629;32;20754;-62
2022/07/13 03:34:30;;;;;;;2.87;1.77;;;18.90;99.90;;;;;;7357595;32;20164;-63
2022/07/13 03:38:31;;;;;;;3.97;1.70;;;19.10;99.90;;;;;;7356661;32;20179;-62
2022/07/13 03:42:34;;;;;;;2.72;1.40;;;19.10;99.90;;;;;;7357510;32;20175;-62
2022/07/13 03:46:36;;;;;;;3.33;1.50;;;19.20;99.90;;;;;;7359557;32;20210;-62
2022/07/13 03:50:37;;;;;;;1.95;1.65;;;19.20;99.90;;;;;;7361187;32;20183;-62
2022/07/13 03:54:39;;;;;;;2.85;1.80;;;19.30;99.90;;;;;;7350830;32;20107;-61
2022/07/13 03:58:41;;;;;;;2.65;1.50;;;19.30;99.90;;;;;;7355406;32;20111;-62
2022/07/13 04:02:43;;;;;;;2.17;1.70;;;19.40;99.90;;;;;;7361765;32;20103;-62
2022/07/13 04:06:44;;;;;;;1.60;1.50;;;19.50;99.90;;;;;;7361717;32;20129;-62
2022/07/13 04:10:46;;;;;;;2.12;1.58;;;19.50;99.90;;;;;;7354381;32;20135;-62
2022/07/13 04:14:51;;;;;;;2.65;1.60;;;19.60;99.90;;;;;;7354366;32;20112;-62
2022/07/13 04:18:53;;;;;;;2.87;1.60;;;19.60;99.90;;;;;;7360658;32;20171;-61
2022/07/13 04:22:55;;;;;;;2.97;1.55;;;19.70;99.90;;;;;;7361609;32;20142;-60
2022/07/13 04:26:57;;;;;;;3.30;1.80;;;19.80;99.90;;;;;;7361201;32;20174;-61
2022/07/13 04:31:00;;;;;;;5.53;2.83;;;19.80;99.90;;;;;;7359898;32;20127;-60
2022/07/13 04:35:01;;;;;;;5.25;2.03;;;19.90;99.90;;;;;;7361198;32;20134;-61
2022/07/13 04:39:03;;;;;;;3.22;1.80;;;19.90;99.90;;;;;;7360121;32;20111;-61
2022/07/13 04:43:05;;;;;;;4.78;1.60;;;19.90;99.90;;;;;;7361001;32;20159;-61
2022/07/13 04:47:07;;;;;;;2.15;1.48;;;20.00;99.90;;;;;;7361007;32;20218;-64
2022/07/13 04:51:09;;;;;;;1.90;1.50;;;20.10;99.90;;;;;;7358708;32;20134;-64
2022/07/13 04:55:11;;;;;;;2.62;1.60;;;20.10;99.90;;;;;;7359793;32;20572;-64
2022/07/13 04:59:13;;;;;;;4.25;1.67;;;20.10;99.90;;;;;;7342175;32;20183;-65
2022/07/13 05:03:15;;;;;;;6.62;1.60;;;20.20;99.90;;;;;;7359798;32;20166;-65
2022/07/13 05:07:17;;;;;;;6.03;1.48;;;20.20;99.90;;;;;;7360133;32;20115;-65
2022/07/13 05:11:18;;;;;;;4.50;1.65;;;20.30;99.90;;;;;;7358535;32;20156;-66
2022/07/13 05:15:20;;;;;;;2.42;1.60;;;20.30;99.90;;;;;;7360393;32;20176;-65
2022/07/13 05:19:22;;;;;;;2.25;1.87;;;20.30;99.90;;;;;;7359160;32;20160;-65
2022/07/13 05:23:24;;;;;;;1.37;1.25;;;20.40;99.90;;;;;;7360044;32;20414;-65
2022/07/13 05:27:25;;;;;;;3.78;1.48;;;20.40;99.90;;;;;;7359759;32;20166;-65
2022/07/13 05:31:27;;;;;;;8.00;1.80;;;20.50;99.90;;;;;;7358618;32;20537;-65
2022/07/13 05:35:29;;;;;;;4.37;1.40;;;20.60;99.90;;;;;;7359825;32;20163;-65
2022/07/13 05:39:31;;;;;;;2.37;1.65;;;20.70;99.90;;;;;;7358361;32;20119;-65
2022/07/13 05:43:33;;;;;;;3.42;1.55;;;20.90;99.90;;;;;;7359275;32;20115;-65
2022/07/13 05:47:34;;;;;;;5.37;1.45;;;21.00;99.90;;;;;;7358879;32;20176;-65
2022/07/13 05:51:36;;;;;;;5.37;1.70;;;21.20;99.90;;;;;;7358938;32;20243;-65
2022/07/13 05:55:38;;;;;;;9.18;1.90;;;21.40;99.90;;;;;;7341927;32;20178;-65
2022/07/13 05:59:39;;;;;;;8.13;1.60;;;21.60;99.90;;;;;;7339765;32;20111;-65
2022/07/13 06:03:41;;;;;;;5.75;1.50;;;21.80;99.90;;;;;;7358592;32;20163;-65
2022/07/13 06:07:43;;;;;;;3.78;1.70;;;21.90;99.90;;;;;;7357487;32;20151;-65
2022/07/13 06:11:46;;;;;;;4.90;1.95;;;22.00;99.90;;;;;;7358417;32;20506;-64
2022/07/13 06:15:48;;;;;;;3.75;1.70;;;22.00;99.90;;;;;;7357511;32;20902;-65
2022/07/13 06:19:50;;;;;;;8.50;1.50;;;22.20;99.90;;;;;;7358193;32;20103;-65
2022/07/13 06:23:52;;;;;;;4.18;1.60;;;22.40;99.90;;;;;;7358980;32;20479;-65
2022/07/13 06:27:54;;;;;;;8.18;1.60;;;22.50;99.90;;;;;;7357526;32;20150;-65
2022/07/13 06:31:55;;;;;;;9.48;1.70;;;22.70;99.90;;;;;;7358181;32;20706;-64
2022/07/13 06:35:57;;;;;;;3.58;1.58;;;22.80;99.90;;;;;;7358328;32;20126;-65
2022/07/13 06:39:59;;;;;;;2.78;1.73;;;22.80;99.90;;;;;;7357529;32;20111;-65
2022/07/13 06:44:01;;;;;;;9.05;3.20;;;23.00;99.90;;;;;;7357900;32;20122;-65
2022/07/13 06:48:03;;;;;;;4.80;2.83;;;23.00;99.90;;;;;;7356862;32;20467;-64
2022/07/13 06:52:04;;;;;;;6.78;3.70;;;23.10;99.90;;;;;;7356667;32;20408;-64
2022/07/13 06:56:06;;;;;;;4.50;1.75;;;22.90;99.90;;;;;;7339402;32;20235;-64
2022/07/13 07:00:09;;;;;;;4.75;1.90;;;23.00;99.90;;;;;;7355632;32;20171;-64
2022/07/13 07:04:10;;;;;;;4.87;2.20;;;23.00;99.90;;;;;;7356600;32;20540;-64
2022/07/13 07:08:13;;;;;;;3.90;1.80;;;23.20;99.90;;;;;;7356666;32;20111;-64
2022/07/13 07:12:15;;;;;;;6.72;1.70;;;23.30;99.90;;;;;;7356645;32;20131;-65
2022/07/13 07:16:17;;;;;;;3.55;1.87;;;23.30;99.90;;;;;;7356429;32;20210;-65
2022/07/13 07:20:19;;;;;;;5.53;1.60;;;23.40;99.90;;;;;;7356406;32;20519;-64
2022/07/13 07:24:24;;;;;;;4.35;1.98;;;23.50;99.90;;;;;;7361964;32;20135;-64
2022/07/13 07:28:25;;;;;;;7.57;1.70;;;23.50;99.90;;;;;;7361096;32;20131;-64
2022/07/13 07:32:27;;;;;;;4.03;1.77;;;23.80;99.90;;;;;;7361765;32;20634;-65
2022/07/13 07:36:29;;;;;;;6.32;1.90;;;23.90;99.90;;;;;;7361657;32;20108;-65
2022/07/13 07:40:31;;;;;;;3.55;1.98;;;24.30;99.90;;;;;;7360614;32;20837;-65
2022/07/13 07:44:33;;;;;;;4.43;1.90;;;24.80;99.90;;;;;;7361143;32;20171;-65
2022/07/13 07:48:34;;;;;;;6.87;1.90;;;25.20;99.90;;;;;;7360155;32;20551;-65
2022/07/13 07:52:36;;;;;;;3.97;1.50;;;25.30;99.90;;;;;;7361733;32;20115;-65
2022/07/13 07:56:58;;;;;;;4.72;1.75;;;25.30;99.90;;;;;;7349799;32;20561;-64
2022/07/13 08:01:00;;;;;;;2.95;1.58;;;25.70;99.90;;;;;;7360789;32;20108;-65
2022/07/13 08:05:05;;;;;;;4.45;1.75;;;26.00;99.90;;;;;;7360825;32;20119;-64
2022/07/13 08:09:06;;;;;;;2.67;1.65;;;25.90;99.90;;;;;;7360655;32;20198;-65
2022/07/13 08:13:08;;;;;;;5.82;1.95;;;26.40;99.90;;;;;;7361027;32;20166;-65
2022/07/13 08:17:10;;;;;;;8.18;1.73;;;26.90;99.90;;;;;;7360724;32;20131;-64
2022/07/13 08:21:12;;;;;;;5.40;1.80;;;27.20;99.90;;;;;;7360202;32;20119;-65
2022/07/13 08:25:14;;;;;;;2.95;1.90;;;27.30;99.90;;;;;;7360577;32;21448;-65
2022/07/13 08:29:15;;;;;;;9.13;2.00;;;27.20;99.90;;;;;;7360082;32;20127;-65
2022/07/13 08:33:17;;;;;;;6.50;2.10;;;27.50;99.90;;;;;;7360580;32;20243;-65
2022/07/13 08:41:44;;;;;;;4.95;1.80;;;27.90;97.30;;;;;;7360535;32;20112;-65
2022/07/13 08:45:46;;;;;;;3.58;1.62;;;28.60;97.20;;;;;;7360412;32;20300;-65
2022/07/13 08:49:53;;;;;;;5.30;1.65;;;29.00;92.40;;;;;;7359749;32;20168;-65
2022/07/13 08:54:04;;;;;;;4.97;1.77;;;28.80;91.20;;;;;;7352753;32;20187;-65
2022/07/13 08:58:06;;;;;;;4.93;1.70;;;28.60;90.00;;;;;;7337614;32;20175;-65
2022/07/13 09:02:09;;;;;;;4.18;1.90;;;29.00;90.20;;;;;;7335882;32;20208;-65
2022/07/13 09:06:48;;;;;;;8.45;1.90;;;29.00;90.50;;;;;;7359388;32;20714;-65
2022/07/13 09:11:00;;;;;;;2.78;1.48;;;28.90;85.70;;;;;;7300633;32;20179;-65
2022/07/13 09:15:08;;;;;;;5.82;1.85;;;28.70;86.10;;;;;;7358852;32;20244;-65
2022/07/13 09:19:10;;;;;;;4.87;1.75;;;28.50;85.00;;;;;;7358456;32;20525;-64
2022/07/13 09:23:12;;;;;;;6.32;1.90;;;28.50;87.20;;;;;;7358462;32;20141;-63
2022/07/13 09:27:15;;;;;;;4.55;1.70;;;28.40;87.40;;;;;;7358929;32;20556;-63
2022/07/13 09:31:18;;;;;;;4.00;1.65;;;28.30;86.50;;;;;;7358614;32;20569;-63
2022/07/13 09:35:40;;;;;;;3.70;1.87;;;28.70;87.30;;;;;;7358661;32;20206;-63
2022/07/13 09:39:59;;;;;;;4.30;1.70;;;28.80;86.80;;;;;;7358211;32;20115;-63
2022/07/13 09:48:24;;;;;;;4.50;1.65;;;28.90;86.50;;;;;;7358185;32;20111;-63
2022/07/13 09:52:30;;;;;;;6.97;1.45;;;28.70;85.90;;;;;;7358249;32;20496;-64
2022/07/13 09:56:46;;;;;;;2.80;1.50;;;28.50;84.40;;;;;;7340762;32;20125;-64
2022/07/13 10:00:48;;;;;;;3.62;1.58;;;28.30;84.90;;;;;;7357263;32;20136;-63
2022/07/13 10:04:51;;;;;;;4.87;1.60;;;28.40;89.80;;;;;;7357953;32;20504;-64
2022/07/13 10:08:54;;;;;;;3.80;1.85;;;28.30;89.70;;;;;;7357187;32;20164;-63
2022/07/13 10:13:05;;;;;;;9.70;1.67;;;28.80;87.50;;;;;;7357691;32;20147;-64
2022/07/13 10:17:12;;;;;;;4.15;1.67;;;28.90;88.30;;;;;;7358276;32;20198;-64
2022/07/13 10:21:26;;;;;;;4.43;1.45;;;29.10;88.10;;;;;;7357277;32;20198;-64
2022/07/13 10:25:45;;;;;;;2.20;1.52;;;29.10;86.90;;;;;;7357793;32;20270;-64
2022/07/13 10:29:48;;;;;;;5.93;1.37;;;29.30;90.70;;;;;;7356789;32;20131;-64
2022/07/13 10:33:50;;;;;;;4.10;1.70;;;29.30;84.90;;;;;;7358211;32;20362;-64
2022/07/13 10:38:06;;;;;;;7.62;1.73;;;28.90;87.40;;;;;;7357137;32;20496;-64
2022/07/13 10:42:10;;;;;;;4.50;1.50;;;28.70;87.70;;;;;;7355322;32;20202;-64
2022/07/13 10:46:48;;;;;;;3.15;1.42;;;28.30;88.30;;;;;;7358161;32;20217;-64
2022/07/13 10:51:02;;;;;;;4.70;1.55;;;28.10;90.50;;;;;;7357754;32;20168;-64
2022/07/13 10:55:03;;;;;;;4.15;1.48;;;28.10;90.50;;;;;;7357267;32;20112;-63
2022/07/13 10:59:07;;;;;;;2.90;1.80;;;28.00;91.50;;;;;;7340100;32;20303;-63
2022/07/13 11:03:43;;;;;;;4.05;1.45;;;27.80;93.00;;;;;;7346531;32;20122;-64
2022/07/13 11:08:12;;;;;;;4.07;1.65;;;27.80;93.60;;;;;;7361175;32;20142;-64
2022/07/13 11:12:21;;;;;;;2.90;1.30;;;28.10;92.60;;;;;;7362900;32;20172;-63
2022/07/13 11:16:48;;;;;;;4.00;1.20;;;28.50;90.90;;;;;;7362705;32;20172;-64
2022/07/13 11:20:56;;;;;;;3.75;1.45;;;28.70;91.60;;;;;;7362287;32;20103;-64
2022/07/13 11:25:16;;;;;;;8.05;1.58;;;28.80;91.80;;;;;;7361858;32;20176;-64
2022/07/13 11:29:23;;;;;;;4.32;1.48;;;28.90;90.40;;;;;;7361482;32;20206;-64
2022/07/13 11:33:25;;;;;;;3.70;1.40;;;29.00;89.60;;;;;;7361709;32;20138;-64
2022/07/13 11:37:27;;;;;;;4.80;1.40;;;29.10;91.50;;;;;;7362138;32;20210;-64
2022/07/13 11:41:28;;;;;;;3.53;1.27;;;29.40;90.70;;;;;;7361313;32;20210;-64
2022/07/13 11:45:31;;;;;;;2.53;1.27;;;29.30;90.30;;;;;;7361709;32;20112;-64
2022/07/13 11:49:43;;;;;;;4.50;1.10;;;29.00;91.30;;;;;;7361127;32;20523;-64
2022/07/13 11:53:45;;;;;;;5.47;1.40;;;29.00;92.00;;;;;;7355908;32;20565;-64
2022/07/13 11:57:47;;;;;;;4.57;1.40;;;29.00;90.20;;;;;;7349101;32;20127;-64
2022/07/13 12:01:50;;;;;;;3.75;1.35;;;29.00;90.20;;;;;;7362057;32;20461;-64
2022/07/13 12:05:57;;;;;;;3.72;1.20;;;28.90;90.80;;;;;;7360448;32;20141;-64
2022/07/13 12:10:00;;;;;;;;;;;29.00;91.30;;;;;;7361214;32;20139;-63
2022/07/13 12:14:02;;;;;;;7.18;1.30;;;29.30;90.60;;;;;;7360826;32;20197;-64
2022/07/13 12:18:08;;;;;;;4.00;1.40;;;29.70;90.40;;;;;;7360092;32;20179;-63
2022/07/13 12:22:10;;;;;;;3.55;1.23;;;29.80;90.50;;;;;;7360166;32;20160;-64
2022/07/13 12:26:12;;;;;;;4.07;1.60;;;29.80;87.80;;;;;;7359825;32;20191;-63
2022/07/13 12:30:14;;;;;;;5.72;1.40;;;29.70;87.40;;;;;;7359245;32;20119;-63
2022/07/13 12:34:17;;;;;;;4.25;1.40;;;29.40;88.20;;;;;;7361152;32;20565;-63
2022/07/13 12:38:19;;;;;;;4.45;1.45;;;29.20;89.60;;;;;;7361156;32;20484;-63
2022/07/13 12:42:21;;;;;;;3.67;1.40;;;29.00;89.80;;;;;;7360947;32;20115;-63
2022/07/13 12:46:23;;;;;;;4.20;1.35;;;29.00;89.50;;;;;;7360717;32;20827;-63
2022/07/13 12:50:30;;;;;;;4.87;1.80;;;28.90;90.70;;;;;;7359830;32;20163;-63
2022/07/13 12:54:48;;;;;;;5.32;1.70;;;28.80;90.70;;;;;;7349446;32;20161;-63
2022/07/13 12:58:51;;;;;;;3.35;1.30;;;28.70;90.80;;;;;;7354416;32;20172;-63
2022/07/13 13:02:53;;;;;;;6.40;1.52;;;28.50;91.10;;;;;;7360340;32;20233;-63
2022/07/13 13:06:55;;;;;;;3.20;1.65;;;28.50;91.70;;;;;;7359362;32;20138;-63
2022/07/13 13:10:57;;;;;;;6.35;1.90;;;28.50;92.30;;;;;;7359749;32;20221;-64
2022/07/13 13:15:15;;;;;;;5.45;1.50;;;28.60;93.50;;;;;;7359767;32;20157;-64
2022/07/13 13:19:17;;;;;;;5.70;1.25;;;28.90;92.20;;;;;;7358181;32;20332;-64
2022/07/13 13:23:19;;;;;;;5.22;1.50;;;29.30;92.10;;;;;;7358632;32;20167;-63
2022/07/13 13:27:20;;;;;;;4.93;1.83;;;29.40;90.70;;;;;;7359422;32;20510;-63
2022/07/13 13:31:42;;;;;;;5.28;1.75;;;29.70;92.20;;;;;;7358283;32;20194;-63
2022/07/13 13:35:52;;;;;;;8.55;2.03;;;29.60;90.50;;;;;;7359227;32;20783;-63
2022/07/13 13:39:54;;;;;;;5.87;2.10;;;29.60;92.60;;;;;;7357723;32;20111;-63
2022/07/13 13:43:55;;;;;;;4.82;1.80;;;29.50;91.30;;;;;;7358468;32;20195;-63
2022/07/13 13:47:57;;;;;;;3.92;2.00;;;29.10;91.30;;;;;;7357827;32;20209;-63
2022/07/13 13:51:59;;;;;;;9.98;1.70;;;29.20;91.90;;;;;;7359181;32;20503;-63
2022/07/13 13:56:01;;;;;;;4.12;1.80;;;29.30;92.20;;;;;;7355505;32;20146;-63
2022/07/13 14:00:10;;;;;;;4.45;2.00;;;29.60;91.10;;;;;;7332263;32;20108;-63
2022/07/13 14:04:30;;;;;;;4.72;1.95;;;29.40;90.60;;;;;;7333333;32;20121;-63
2022/07/13 14:08:33;;;;;;;7.12;2.03;;;29.00;90.40;;;;;;7331948;32;20673;-63
2022/07/13 14:12:35;;;;;;;7.75;1.60;;;28.70;90.80;;;;;;7339417;32;20158;-64
2022/07/13 14:16:37;;;;;;;3.58;1.55;;;28.60;90.00;;;;;;7358016;32;20160;-63
2022/07/13 14:20:39;;;;;;;5.22;1.40;;;28.60;86.10;;;;;;7357092;32;20194;-64
2022/07/13 14:24:41;;;;;;;5.10;1.50;;;28.70;87.10;;;;;;7358461;32;20517;-63
2022/07/13 14:28:43;;;;;;;6.57;1.33;;;28.70;86.00;;;;;;7357333;32;20185;-63
2022/07/13 14:32:44;;;;;;;3.37;1.60;;;28.60;85.50;;;;;;7357974;32;20123;-64
2022/07/13 14:36:53;;;;;;;3.65;1.58;;;28.80;88.80;;;;;;7357846;32;20735;-64
2022/07/13 14:40:55;;;;;;;3.20;1.80;;;29.20;86.80;;;;;;7356586;32;20118;-64
2022/07/13 14:44:57;;;;;;;5.15;2.15;;;30.00;83.00;;;;;;7357821;32;20143;-64
2022/07/13 14:48:59;;;;;;;6.40;2.30;;;29.40;82.60;;;;;;7356975;32;20234;-64
2022/07/13 14:53:21;;;;;;;8.90;2.15;;;28.90;83.90;;;;;;7354657;32;20103;-64
2022/07/13 14:57:23;;;;;;;6.22;1.60;;;29.30;85.70;;;;;;7342314;32;20136;-64
2022/07/13 15:01:24;;;;;;;2.87;1.48;;;29.20;81.20;;;;;;7356513;32;20126;-64
2022/07/13 15:05:28;;;;;;;5.43;1.80;;;29.20;82.90;;;;;;7356527;32;20234;-64
2022/07/13 15:09:30;;;;;;;2.83;1.50;;;29.50;84.30;;;;;;7356697;32;20171;-63
2022/07/13 15:13:52;;;;;;;2.80;1.50;;;29.80;80.70;;;;;;7356980;32;20699;-63
2022/07/13 15:17:54;;;;;;;2.20;1.42;;;29.60;79.30;;;;;;7356715;32;20139;-64
2022/07/13 15:22:10;;;;;;;6.90;1.30;;;29.10;80.10;;;;;;7357005;32;20107;-64
2022/07/13 15:26:11;;;;;;;5.53;1.20;;;28.80;82.30;;;;;;7356948;32;20218;-63
2022/07/13 15:30:14;;;;;;;3.17;1.58;;;28.30;80.20;;;;;;7355957;32;20103;-63
2022/07/13 15:34:16;;;;;;;2.87;1.35;;;27.90;82.90;;;;;;7357371;32;20127;-63
2022/07/13 15:38:17;;;;;;;5.53;1.40;;;27.90;85.30;;;;;;7355528;32;20210;-63
2022/07/13 15:42:19;;;;;;;4.00;1.50;;;27.80;86.70;;;;;;7357736;32;20431;-63
2022/07/13 15:46:22;;;;;;;3.78;1.30;;;27.70;87.90;;;;;;7361548;32;20119;-63
2022/07/13 15:50:30;;;;;;;6.05;1.80;;;27.40;90.60;;;;;;7361247;32;20099;-63
2022/07/13 15:54:33;;;;;;;4.80;1.70;;;27.40;90.90;;;;;;7350657;32;20215;-63
2022/07/13 15:58:35;;;;;;;5.57;1.75;;;27.10;91.20;;;;;;7356755;32;20145;-63
2022/07/13 16:02:36;;;;;;;3.50;1.27;;;26.90;88.60;;;;;;7361300;32;20159;-63
2022/07/13 16:06:38;;;;;;;2.00;1.02;;;26.60;86.10;;;;;;7361535;32;20222;-63
2022/07/13 16:10:40;;;;;;;3.28;1.08;;;26.30;84.90;;;;;;7359754;32;20131;-63
2022/07/13 16:14:42;;;;;;;1.95;1.05;;;25.90;85.30;;;;;;7360876;32;20106;-63
2022/07/13 16:18:44;;;;;;;2.85;1.20;;;25.90;85.50;;;;;;7360479;32;20134;-63
2022/07/13 16:22:46;;;;;;;1.40;1.10;;;25.70;88.40;;;;;;7360930;32;20143;-63
2022/07/13 16:26:47;;;;;;;1.85;1.20;;;25.40;89.80;;;;;;7359463;32;20171;-63
2022/07/13 16:30:49;;;;;;;4.25;1.10;;;25.30;91.20;;;;;;7359375;32;20318;-63
2022/07/13 16:34:51;;;;;;;1.83;0.90;;;25.20;90.10;;;;;;7360610;32;20590;-63
2022/07/13 16:38:53;;;;;;;3.97;0.75;;;25.10;87.40;;;;;;7360069;32;20111;-63
2022/07/13 16:42:55;;;;;;;1.15;0.70;;;25.10;86.70;;;;;;7360225;32;20139;-63
2022/07/13 16:46:57;;;;;;;2.33;0.80;;;24.80;87.70;;;;;;7360574;32;20136;-63
2022/07/13 16:50:59;;;;;;;2.47;0.95;;;24.60;92.40;;;;;;7358959;32;20221;-63
2022/07/13 16:55:00;;;;;;;2.37;0.70;;;24.50;94.70;;;;;;7359718;32;20131;-63
2022/07/13 16:59:02;;;;;;;1.65;0.80;;;24.10;97.10;;;;;;7342263;32;20111;-64
2022/07/13 17:03:04;;;;;;;2.87;0.80;;;23.90;97.60;;;;;;7359664;32;20615;-63
2022/07/13 17:07:06;;;;;;;2.60;0.70;;;23.80;97.70;;;;;;7359224;32;20123;-63
2022/07/13 17:11:08;;;;;;;1.80;0.88;;;23.80;99.80;;;;;;7359034;32;20138;-63
2022/07/13 17:15:10;;;;;;;3.60;0.90;;;23.70;96.30;;;;;;7359292;32;20112;-63
2022/07/13 17:19:11;;;;;;;3.08;0.98;;;23.80;94.40;;;;;;7358803;32;20171;-63
2022/07/13 17:23:13;;;;;;;1.90;0.60;;;23.80;95.40;;;;;;7359611;32;20798;-63
2022/07/13 17:27:15;;;;;;;3.00;0.70;;;23.90;96.00;;;;;;7358758;32;20175;-63
2022/07/13 17:31:31;;;;;;;1.15;0.68;;;23.90;96.20;;;;;;7357182;32;20496;-63
2022/07/13 17:35:33;;;;;;;1.47;0.93;;;24.00;96.70;;;;;;7358257;32;20123;-63
2022/07/13 17:39:35;;;;;;;2.70;0.73;;;24.10;96.20;;;;;;7358795;32;20130;-63
2022/07/13 17:43:37;;;;;;;2.20;0.80;;;24.10;96.80;;;;;;7358625;32;20134;-63
2022/07/13 17:47:39;;;;;;;3.05;1.00;;;24.20;96.30;;;;;;7357466;32;20270;-63
2022/07/13 17:51:41;;;;;;;1.15;0.70;;;24.20;96.00;;;;;;7359068;32;20469;-63
2022/07/13 17:55:43;;;;;;;2.87;0.70;;;24.30;95.60;;;;;;7341320;32;20565;-63
2022/07/13 17:59:44;;;;;;;2.00;0.75;;;24.30;95.60;;;;;;7357487;32;20128;-64
2022/07/13 18:03:46;;;;;;;2.30;0.80;;;24.20;96.20;;;;;;7357918;32;20133;-63
2022/07/13 18:07:48;;;;;;;0.93;0.68;;;24.10;96.30;;;;;;7357103;32;20511;-64
2022/07/13 18:11:50;;;;;;;2.62;0.80;;;24.10;97.20;;;;;;7357694;32;20119;-63
2022/07/13 18:15:52;;;;;;;2.00;1.30;;;24.00;96.90;;;;;;7357625;32;20107;-63
2022/07/13 18:19:54;;;;;;;1.87;1.20;;;23.90;97.90;;;;;;7357515;32;20168;-63
2022/07/13 18:24:01;;;;;;;4.35;1.10;;;23.80;99.30;;;;;;7358469;32;20119;-63
2022/07/13 18:28:03;;;;;;;3.20;1.00;;;23.60;99.90;;;;;;7357456;32;20115;-63
2022/07/13 18:32:06;;;;;;;3.30;0.90;;;23.50;99.90;;;;;;7332769;32;20187;-63
2022/07/13 18:36:09;;;;;;;1.42;1.00;;;23.30;99.90;;;;;;7332629;32;20365;-63
2022/07/13 18:40:11;;;;;;;4.07;1.33;;;23.20;99.90;;;;;;7331553;32;20172;-64
2022/07/13 18:44:13;;;;;;;3.08;1.40;;;23.00;99.90;;;;;;7345565;32;20111;-63
2022/07/13 18:48:14;;;;;;;3.42;1.52;;;23.10;99.90;;;;;;7357344;32;20222;-63
2022/07/13 18:52:16;;;;;;;5.35;1.70;;;23.00;99.90;;;;;;7358322;32;20119;-63
2022/07/13 18:56:18;;;;;;;2.33;1.42;;;23.00;99.90;;;;;;7354854;32;20104;-63
2022/07/13 19:00:21;;;;;;;5.43;1.55;;;22.90;99.90;;;;;;7356712;32;20125;-63
2022/07/13 19:04:22;;;;;;;4.22;1.50;;;22.80;99.90;;;;;;7358141;32;20131;-63
2022/07/13 19:08:24;;;;;;;2.60;1.60;;;22.60;99.90;;;;;;7356874;32;20107;-64
2022/07/13 19:12:26;;;;;;;6.28;1.33;;;22.40;99.90;;;;;;7357171;32;20111;-65
2022/07/13 19:16:28;;;;;;;3.62;1.70;;;22.30;99.90;;;;;;7358131;32;20184;-65
2022/07/13 19:20:30;;;;;;;4.62;1.58;;;22.00;99.90;;;;;;7361839;32;20152;-64
2022/07/13 19:28:52;;;;;;;3.67;1.40;;;21.70;99.90;;;;;;7362008;32;20115;-64
2022/07/13 19:32:54;;;;;;;3.92;1.90;;;21.50;99.90;;;;;;7362348;32;20251;-65
2022/07/13 19:36:56;;;;;;;4.07;2.00;;;21.40;99.90;;;;;;7362179;32;20130;-64
2022/07/13 19:40:58;;;;;;;4.37;1.95;;;21.30;99.90;;;;;;7361257;32;20148;-64
2022/07/13 19:44:59;;;;;;;4.90;1.65;;;21.10;99.90;;;;;;7362020;32;20162;-64
2022/07/13 19:49:01;;;;;;;6.57;2.20;;;21.00;99.90;;;;;;7361490;32;20278;-64
2022/07/13 19:53:03;;;;;;;4.40;2.22;;;20.90;99.90;;;;;;7361628;32;20130;-64
2022/07/13 19:57:05;;;;;;;3.80;2.22;;;20.70;99.90;;;;;;7352665;32;20100;-62
2022/07/13 20:01:07;;;;;;;6.60;2.15;;;20.70;99.90;;;;;;7335703;32;20143;-62
2022/07/13 20:05:12;;;;;;;6.15;2.10;;;20.60;99.90;;;;;;7336190;32;20099;-62
2022/07/13 20:09:14;;;;;;;4.70;1.73;;;20.70;99.90;;;;;;7352116;32;20130;-62
2022/07/13 20:13:16;;;;;;;4.10;1.90;;;20.70;99.90;;;;;;7361526;32;20115;-63
2022/07/13 20:17:18;;;;;;;4.70;2.00;;;20.70;99.90;;;;;;7361305;32;20496;-62
2022/07/13 20:21:20;;;;;;;5.03;2.17;;;20.80;99.90;;;;;;7360553;32;20120;-62
2022/07/13 20:25:22;;;;;;;4.45;2.20;;;20.80;99.90;;;;;;7360307;32;20152;-62
2022/07/13 20:29:23;;;;;;;4.40;2.25;;;20.70;99.90;;;;;;7360346;32;20111;-62
2022/07/13 20:33:28;;;;;;;4.20;2.10;;;20.70;99.90;;;;;;7360916;32;20115;-62
2022/07/13 20:37:30;;;;;;;4.85;2.15;;;20.70;99.90;;;;;;7360670;32;20503;-61
2022/07/13 20:41:32;;;;;;;5.20;2.12;;;20.70;99.90;;;;;;7359223;32;20178;-62
2022/07/13 20:45:33;;;;;;;6.95;2.00;;;20.60;99.90;;;;;;7360465;32;20209;-62
2022/07/13 20:49:35;;;;;;;5.82;1.95;;;20.50;99.90;;;;;;7359677;32;20115;-61
2022/07/13 20:53:37;;;;;;;3.30;1.80;;;20.40;99.90;;;;;;7355915;32;20139;-62
2022/07/13 20:57:39;;;;;;;5.70;2.00;;;20.30;99.90;;;;;;7346930;32;20220;-61
2022/07/13 21:01:41;;;;;;;2.95;2.05;;;20.20;99.90;;;;;;7360225;32;20111;-61
2022/07/13 21:05:44;;;;;;;5.55;2.87;;;20.00;99.90;;;;;;7360442;32;20111;-61
2022/07/13 21:09:46;;;;;;;4.75;2.03;;;19.90;99.90;;;;;;7359537;32;20131;-62
2022/07/13 21:13:49;;;;;;;3.72;2.33;;;19.70;99.90;;;;;;7359153;32;20111;-62
2022/07/13 21:17:51;;;;;;;4.45;2.17;;;19.60;99.90;;;;;;7359510;32;20192;-62
2022/07/13 21:21:53;;;;;;;4.45;2.22;;;19.60;99.90;;;;;;7360240;32;20107;-61